createdAt,value
2018-10-11T00:00:22.808Z,11.60
2018-10-11T00:02:51.373Z,11.60
2018-10-11T00:05:19.990Z,11.70
2018-10-11T00:07:48.568Z,11.70
2018-10-11T00:10:17.162Z,11.60
2018-10-11T00:12:45.867Z,11.60
2018-10-11T00:15:14.424Z,11.60
2018-10-11T00:17:43.382Z,11.60
2018-10-11T00:20:11.927Z,11.60
2018-10-11T00:22:40.540Z,11.60
2018-10-11T00:25:09.178Z,11.60
2018-10-11T00:27:38.025Z,11.60
2018-10-11T00:30:06.903Z,11.60
2018-10-11T00:32:35.466Z,11.70
2018-10-11T00:35:04.490Z,11.70
2018-10-11T00:37:33.083Z,11.70
2018-10-11T00:40:01.675Z,11.70
2018-10-11T00:42:30.293Z,11.60
2018-10-11T00:44:59.547Z,11.60
2018-10-11T00:47:28.165Z,11.50
2018-10-11T00:49:56.742Z,11.50
2018-10-11T00:52:25.310Z,11.40
2018-10-11T00:54:53.923Z,11.30
2018-10-11T00:57:22.483Z,11.30
2018-10-11T00:59:51.067Z,11.30
2018-10-11T01:02:19.695Z,11.30
2018-10-11T01:04:48.278Z,11.20
2018-10-11T01:07:16.870Z,11.20
2018-10-11T01:09:45.830Z,11.20
2018-10-11T01:12:14.406Z,11.20
2018-10-11T01:14:42.968Z,11.20
2018-10-11T01:17:11.597Z,11.10
2018-10-11T01:19:40.237Z,11.10
2018-10-11T01:22:08.746Z,11.00
2018-10-11T01:24:37.223Z,10.90
2018-10-11T01:27:05.827Z,10.90
2018-10-11T01:29:34.632Z,10.80
2018-10-11T01:32:03.080Z,10.80
2018-10-11T01:34:31.572Z,10.70
2018-10-11T01:37:00.086Z,10.70
2018-10-11T01:39:28.595Z,10.60
2018-10-11T01:41:57.111Z,10.60
2018-10-11T01:44:25.622Z,10.60
2018-10-11T01:46:54.159Z,10.60
2018-10-11T01:49:22.638Z,10.60
2018-10-11T01:51:51.174Z,10.60
2018-10-11T01:54:19.677Z,10.50
2018-10-11T01:56:48.240Z,10.50
2018-10-11T01:59:16.666Z,10.50
2018-10-11T02:01:45.133Z,10.50
2018-10-11T02:04:13.891Z,10.40
2018-10-11T02:06:42.361Z,10.40
2018-10-11T02:09:10.886Z,10.40
2018-10-11T02:11:39.381Z,10.40
2018-10-11T02:14:08.079Z,10.40
2018-10-11T02:16:36.562Z,10.40
2018-10-11T02:19:05.097Z,10.40
2018-10-11T02:21:33.559Z,10.40
2018-10-11T02:24:02.106Z,10.40
2018-10-11T02:26:30.597Z,10.30
2018-10-11T02:28:59.095Z,10.20
2018-10-11T02:31:27.566Z,10.20
2018-10-11T02:33:56.111Z,10.20
2018-10-11T02:36:24.581Z,10.20
2018-10-11T02:38:53.371Z,10.20
2018-10-11T02:41:21.858Z,10.20
2018-10-11T02:43:50.353Z,10.20
2018-10-11T02:46:18.867Z,10.20
2018-10-11T02:48:47.358Z,10.10
2018-10-11T02:51:15.848Z,10.00
2018-10-11T02:53:44.381Z,10.00
2018-10-11T02:56:13.263Z,10.00
2018-10-11T02:58:53.044Z,10.00
2018-10-11T03:01:21.948Z,9.90
2018-10-11T03:03:53.540Z,9.90
2018-10-11T03:06:22.044Z,9.90
2018-10-11T03:08:50.648Z,9.90
2018-10-11T03:11:19.499Z,9.90
2018-10-11T03:13:47.996Z,9.90
2018-10-11T03:16:16.491Z,9.90
2018-10-11T03:18:44.967Z,9.90
2018-10-11T03:21:13.446Z,10.00
2018-10-11T03:23:41.941Z,10.00
2018-10-11T03:26:10.445Z,10.10
2018-10-11T03:28:38.907Z,10.10
2018-10-11T03:31:07.782Z,10.10
2018-10-11T03:33:36.267Z,10.10
2018-10-11T03:36:04.797Z,10.10
2018-10-11T03:38:33.335Z,10.10
2018-10-11T03:41:01.834Z,10.10
2018-10-11T03:43:30.314Z,10.00
2018-10-11T03:45:58.935Z,10.00
2018-10-11T03:48:27.427Z,10.00
2018-10-11T03:50:55.946Z,9.90
2018-10-11T03:53:24.420Z,9.90
2018-10-11T03:55:52.906Z,9.80
2018-10-11T03:58:21.366Z,9.70
2018-10-11T04:00:49.879Z,9.70
2018-10-11T04:03:18.402Z,9.60
2018-10-11T04:05:46.927Z,9.60
2018-10-11T04:08:15.427Z,9.60
2018-10-11T04:10:43.882Z,9.60
2018-10-11T04:13:12.529Z,9.60
2018-10-11T04:15:41.128Z,9.70
2018-10-11T04:18:09.506Z,9.70
2018-10-11T04:20:38.239Z,9.70
2018-10-11T04:23:06.769Z,9.70
2018-10-11T04:25:35.266Z,9.60
2018-10-11T04:28:03.752Z,9.70
2018-10-11T04:30:32.245Z,9.70
2018-10-11T04:33:00.721Z,9.80
2018-10-11T04:35:29.191Z,9.80
2018-10-11T04:37:57.678Z,9.90
2018-10-11T04:40:26.164Z,9.80
2018-10-11T04:42:54.763Z,9.70
2018-10-11T04:45:23.159Z,9.60
2018-10-11T04:47:51.633Z,9.50
2018-10-11T04:50:20.119Z,9.50
2018-10-11T04:52:48.612Z,9.40
2018-10-11T04:55:17.082Z,9.40
2018-10-11T04:57:45.575Z,9.40
2018-10-11T05:00:14.033Z,9.40
2018-10-11T05:02:42.658Z,9.30
2018-10-11T05:05:11.468Z,9.30
2018-10-11T05:07:40.229Z,9.30
2018-10-11T05:10:08.733Z,9.30
2018-10-11T05:12:37.473Z,9.30
2018-10-11T05:15:06.639Z,9.30
2018-10-11T05:17:35.215Z,9.30
2018-10-11T05:20:03.731Z,9.30
2018-10-11T05:22:32.223Z,9.30
2018-10-11T05:25:00.751Z,9.30
2018-10-11T05:27:29.508Z,9.30
2018-10-11T05:29:58.013Z,9.30
2018-10-11T05:32:26.630Z,9.30
2018-10-11T05:34:55.155Z,9.30
2018-10-11T05:37:23.633Z,9.30
2018-10-11T05:39:52.181Z,9.30
2018-10-11T05:42:20.738Z,9.30
2018-10-11T05:44:49.496Z,9.40
2018-10-11T05:47:18.057Z,9.40
2018-10-11T05:49:46.642Z,9.50
2018-10-11T05:52:15.428Z,9.50
2018-10-11T05:54:44.002Z,9.50
2018-10-11T05:57:12.596Z,9.50
2018-10-11T05:59:41.174Z,9.60
2018-10-11T06:02:09.740Z,9.60
2018-10-11T06:04:38.300Z,9.70
2018-10-11T06:07:06.914Z,9.60
2018-10-11T06:09:35.451Z,9.70
2018-10-11T06:12:03.978Z,9.70
2018-10-11T06:14:32.474Z,9.70
2018-10-11T06:17:01.116Z,9.70
2018-10-11T06:19:29.984Z,9.70
2018-10-11T06:21:58.547Z,9.70
2018-10-11T06:24:27.097Z,9.80
2018-10-11T06:26:55.632Z,9.80
2018-10-11T06:29:24.231Z,9.80
2018-10-11T06:31:52.879Z,9.90
2018-10-11T06:34:21.464Z,9.90
2018-10-11T06:36:50.065Z,9.90
2018-10-11T06:39:18.588Z,9.90
2018-10-11T06:41:47.233Z,10.10
2018-10-11T06:44:15.820Z,10.10
2018-10-11T06:46:44.621Z,10.10
2018-10-11T06:49:13.223Z,10.10
2018-10-11T06:51:41.900Z,10.20
2018-10-11T06:54:10.588Z,10.20
2018-10-11T06:56:39.122Z,10.30
2018-10-11T06:59:07.667Z,10.30
2018-10-11T07:01:36.442Z,10.40
2018-10-11T07:04:05.000Z,10.50
2018-10-11T07:06:33.534Z,10.60
2018-10-11T07:09:02.056Z,10.60
2018-10-11T07:11:30.913Z,10.70
2018-10-11T07:13:59.429Z,10.80
2018-10-11T07:16:28.256Z,10.80
2018-10-11T07:18:56.797Z,10.90
2018-10-11T07:21:25.347Z,11.00
2018-10-11T07:23:53.866Z,11.10
2018-10-11T07:26:22.370Z,11.10
2018-10-11T07:28:50.992Z,11.20
2018-10-11T07:31:19.497Z,11.30
2018-10-11T07:33:48.059Z,11.40
2018-10-11T07:36:16.557Z,11.50
2018-10-11T07:38:45.485Z,11.60
2018-10-11T07:41:14.011Z,11.70
2018-10-11T07:43:42.520Z,11.80
2018-10-11T07:46:11.031Z,12.00
2018-10-11T07:48:39.957Z,12.10
2018-10-11T07:51:08.495Z,12.40
2018-10-11T07:53:37.022Z,12.50
2018-10-11T07:56:05.563Z,12.60
2018-10-11T07:58:34.091Z,12.70
2018-10-11T08:01:02.649Z,12.90
2018-10-11T08:03:31.202Z,13.10
2018-10-11T08:05:59.743Z,13.40
2018-10-11T08:08:28.370Z,13.50
2018-10-11T08:10:56.865Z,13.50
2018-10-11T08:13:25.299Z,13.60
2018-10-11T08:15:53.869Z,13.70
2018-10-11T08:18:22.353Z,14.00
2018-10-11T08:20:50.919Z,14.00
2018-10-11T08:23:19.416Z,14.10
2018-10-11T08:25:48.352Z,14.10
2018-10-11T08:28:16.476Z,14.20
2018-10-11T08:30:44.988Z,14.50
2018-10-11T08:33:13.553Z,14.60
2018-10-11T08:35:42.055Z,14.70
2018-10-11T08:38:10.737Z,14.90
2018-10-11T08:40:39.120Z,15.10
2018-10-11T08:43:08.053Z,15.30
2018-10-11T08:45:36.572Z,15.30
2018-10-11T08:48:05.103Z,15.50
2018-10-11T08:50:33.634Z,15.70
2018-10-11T08:53:02.147Z,15.90
2018-10-11T08:55:30.732Z,16.10
2018-10-11T08:57:59.195Z,16.40
2018-10-11T09:00:27.713Z,16.70
2018-10-11T09:02:56.243Z,16.90
2018-10-11T09:05:24.772Z,17.10
2018-10-11T09:07:53.305Z,17.20
2018-10-11T09:10:21.833Z,17.30
2018-10-11T09:12:50.366Z,17.50
2018-10-11T09:15:18.891Z,17.60
2018-10-11T09:17:47.459Z,17.80
2018-10-11T09:20:15.989Z,17.90
2018-10-11T09:22:44.523Z,18.10
2018-10-11T09:25:13.067Z,18.20
2018-10-11T09:27:41.573Z,18.30
2018-10-11T09:30:10.148Z,18.30
2018-10-11T09:32:38.665Z,18.40
2018-10-11T09:35:07.636Z,18.40
2018-10-11T09:37:36.199Z,18.60
2018-10-11T09:40:04.779Z,18.80
2018-10-11T09:42:33.545Z,18.80
2018-10-11T09:45:02.061Z,18.90
2018-10-11T09:47:30.616Z,19.00
2018-10-11T09:49:59.148Z,19.30
2018-10-11T09:52:27.664Z,19.30
2018-10-11T09:54:56.239Z,19.60
2018-10-11T09:57:42.141Z,19.80
2018-10-11T10:00:16.837Z,20.00
2018-10-11T10:02:46.977Z,20.20
2018-10-11T10:05:15.531Z,20.30
2018-10-11T10:07:44.074Z,20.50
2018-10-11T10:10:12.638Z,20.50
2018-10-11T10:12:41.140Z,20.50
2018-10-11T10:15:09.712Z,20.40
2018-10-11T10:17:38.256Z,20.60
2018-10-11T10:20:06.828Z,20.70
2018-10-11T10:22:35.327Z,20.70
2018-10-11T10:25:03.915Z,20.60
2018-10-11T10:27:32.486Z,20.70
2018-10-11T10:30:02.812Z,20.70
2018-10-11T10:32:31.327Z,20.70
2018-10-11T10:34:59.818Z,20.70
2018-10-11T10:37:28.335Z,20.80
2018-10-11T10:39:56.877Z,21.00
2018-10-11T10:42:25.293Z,21.20
2018-10-11T10:44:53.814Z,21.30
2018-10-11T10:47:22.331Z,21.50
2018-10-11T10:49:50.835Z,21.60
2018-10-11T10:52:19.334Z,21.50
2018-10-11T10:54:47.828Z,21.60
2018-10-11T10:57:16.299Z,21.70
2018-10-11T10:59:44.810Z,21.70
2018-10-11T11:02:13.307Z,21.60
2018-10-11T11:04:41.811Z,21.70
2018-10-11T11:07:10.327Z,21.90
2018-10-11T11:09:39.173Z,22.00
2018-10-11T11:12:07.682Z,22.10
2018-10-11T11:14:36.163Z,22.00
2018-10-11T11:17:04.683Z,22.00
2018-10-11T11:19:33.249Z,21.90
2018-10-11T11:22:01.759Z,21.90
2018-10-11T11:24:30.245Z,21.90
2018-10-11T11:26:58.819Z,21.80
2018-10-11T11:29:27.323Z,21.90
2018-10-11T11:31:55.816Z,22.00
2018-10-11T11:34:24.311Z,22.00
2018-10-11T11:36:53.150Z,22.00
2018-10-11T11:39:21.887Z,22.10
2018-10-11T11:41:50.416Z,22.20
2018-10-11T11:44:18.953Z,22.20
2018-10-11T11:46:47.451Z,22.30
2018-10-11T11:49:15.975Z,22.20
2018-10-11T11:51:44.469Z,22.10
2018-10-11T11:54:15.954Z,22.10
2018-10-11T11:56:44.436Z,22.20
2018-10-11T11:59:12.975Z,22.20
2018-10-11T12:01:41.458Z,22.10
2018-10-11T12:04:10.211Z,22.20
2018-10-11T12:06:39.001Z,22.10
2018-10-11T12:09:11.468Z,22.20
2018-10-11T12:11:40.045Z,22.20
2018-10-11T12:14:09.030Z,22.20
2018-10-11T12:16:37.976Z,22.20
2018-10-11T12:19:07.319Z,22.30
2018-10-11T12:21:35.791Z,22.30
2018-10-11T12:24:04.323Z,22.30
2018-10-11T12:26:32.863Z,22.30
2018-10-11T12:29:01.452Z,22.20
2018-10-11T12:31:30.214Z,22.20
2018-10-11T12:33:58.702Z,22.20
2018-10-11T12:36:27.254Z,22.10
2018-10-11T12:38:56.561Z,22.10
2018-10-11T12:41:24.959Z,22.10
2018-10-11T12:43:53.484Z,22.00
2018-10-11T12:46:21.968Z,22.00
2018-10-11T12:48:50.453Z,22.00
2018-10-11T12:51:18.928Z,22.00
2018-10-11T12:53:48.530Z,22.10
2018-10-11T12:56:15.954Z,22.00
2018-10-11T12:58:44.474Z,22.00
2018-10-11T13:01:17.272Z,22.00
2018-10-11T13:03:41.655Z,22.00
2018-10-11T13:06:10.127Z,21.90
2018-10-11T13:08:38.616Z,21.90
2018-10-11T13:11:07.214Z,21.90
2018-10-11T13:13:35.699Z,21.90
2018-10-11T13:16:05.093Z,21.90
2018-10-11T13:18:32.808Z,21.90
2018-10-11T13:21:01.315Z,22.00
2018-10-11T13:23:29.775Z,22.00
2018-10-11T13:25:58.264Z,22.10
2018-10-11T13:28:26.755Z,22.20
2018-10-11T13:30:55.263Z,22.30
2018-10-11T13:33:23.724Z,22.20
2018-10-11T13:35:52.243Z,22.20
2018-10-11T13:38:20.708Z,22.20
2018-10-11T13:40:49.331Z,22.20
2018-10-11T13:43:17.679Z,22.20
2018-10-11T13:45:46.156Z,22.20
2018-10-11T13:48:14.620Z,22.30
2018-10-11T13:50:43.127Z,22.30
2018-10-11T13:53:15.422Z,22.30
2018-10-11T13:55:40.851Z,22.20
2018-10-11T13:58:08.924Z,22.20
2018-10-11T14:00:37.411Z,22.20
2018-10-11T14:03:05.968Z,22.10
2018-10-11T14:05:34.732Z,22.10
2018-10-11T14:08:03.215Z,22.20
2018-10-11T14:10:31.742Z,22.10
2018-10-11T14:13:00.206Z,22.10
2018-10-11T14:15:28.703Z,22.00
2018-10-11T14:17:59.969Z,22.00
2018-10-11T14:20:25.734Z,21.90
2018-10-11T14:22:54.223Z,21.90
2018-10-11T14:25:22.715Z,21.80
2018-10-11T14:27:51.181Z,21.80
2018-10-11T14:30:19.677Z,21.60
2018-10-11T14:32:48.187Z,21.50
2018-10-11T14:35:16.691Z,21.50
2018-10-11T14:37:45.176Z,21.40
2018-10-11T14:40:13.698Z,21.30
2018-10-11T14:42:42.428Z,21.30
2018-10-11T14:45:10.916Z,21.30
2018-10-11T14:47:39.414Z,21.20
2018-10-11T14:50:07.975Z,21.10
2018-10-11T14:52:36.440Z,20.90
2018-10-11T14:55:05.095Z,20.80
2018-10-11T14:57:33.835Z,20.80
2018-10-11T15:00:02.349Z,20.70
2018-10-11T15:02:30.844Z,20.70
2018-10-11T15:04:59.411Z,20.70
2018-10-11T15:07:27.896Z,20.60
2018-10-11T15:09:56.388Z,20.80
2018-10-11T15:12:24.899Z,20.70
2018-10-11T15:14:53.408Z,20.70
2018-10-11T15:17:21.915Z,20.60
2018-10-11T15:19:50.549Z,20.60
2018-10-11T15:22:18.900Z,20.40
2018-10-11T15:24:47.425Z,20.40
2018-10-11T15:27:15.908Z,20.30
2018-10-11T15:29:44.447Z,20.20
2018-10-11T15:32:12.926Z,20.10
2018-10-11T15:34:41.438Z,20.00
2018-10-11T15:37:09.927Z,19.90
2018-10-11T15:39:38.435Z,19.80
2018-10-11T15:42:07.307Z,19.70
2018-10-11T15:44:35.795Z,19.60
2018-10-11T15:47:04.287Z,19.50
2018-10-11T15:49:32.891Z,19.40
2018-10-11T15:52:01.414Z,19.30
2018-10-11T15:54:29.907Z,19.20
2018-10-11T15:56:58.411Z,19.10
2018-10-11T15:59:26.901Z,19.00
2018-10-11T16:01:55.413Z,18.90
2018-10-11T16:04:23.911Z,18.70
2018-10-11T16:06:52.392Z,18.60
2018-10-11T16:09:20.938Z,18.40
2018-10-11T16:11:49.441Z,18.30
2018-10-11T16:14:17.955Z,18.20
2018-10-11T16:16:46.487Z,18.10
2018-10-11T16:19:14.968Z,18.00
2018-10-11T16:21:43.467Z,17.90
2018-10-11T16:24:12.022Z,17.70
2018-10-11T16:26:40.520Z,17.60
2018-10-11T16:29:09.148Z,17.50
2018-10-11T16:31:37.679Z,17.40
2018-10-11T16:34:06.431Z,17.30
2018-10-11T16:36:35.196Z,17.20
2018-10-11T16:39:03.891Z,17.10
2018-10-11T16:41:32.376Z,17.10
2018-10-11T16:44:00.888Z,17.00
2018-10-11T16:46:29.390Z,16.90
2018-10-11T16:48:57.921Z,16.80
2018-10-11T16:51:26.415Z,16.70
2018-10-11T16:53:55.186Z,16.60
2018-10-11T16:56:23.704Z,16.50
2018-10-11T16:58:52.216Z,16.40
2018-10-11T17:01:20.752Z,16.30
2018-10-11T17:03:49.252Z,16.20
2018-10-11T17:06:17.844Z,16.20
2018-10-11T17:08:46.346Z,16.10
2018-10-11T17:11:14.899Z,16.00
2018-10-11T17:13:43.431Z,16.10
2018-10-11T17:16:11.959Z,16.00
2018-10-11T17:18:40.495Z,16.00
2018-10-11T17:21:09.205Z,15.90
2018-10-11T17:23:37.743Z,15.90
2018-10-11T17:26:06.528Z,15.80
2018-10-11T17:28:35.077Z,15.80
2018-10-11T17:31:03.578Z,15.70
2018-10-11T17:33:32.076Z,15.70
2018-10-11T17:36:00.568Z,15.60
2018-10-11T17:38:29.107Z,15.50
2018-10-11T17:40:57.592Z,15.50
2018-10-11T17:43:26.072Z,15.40
2018-10-11T17:45:54.550Z,15.40
2018-10-11T17:48:23.136Z,15.30
2018-10-11T17:50:51.952Z,15.40
2018-10-11T17:53:20.759Z,15.30
2018-10-11T17:55:49.271Z,15.30
2018-10-11T17:58:17.775Z,15.30
2018-10-11T18:00:46.292Z,15.20
2018-10-11T18:03:14.902Z,15.20
2018-10-11T18:05:43.364Z,15.10
2018-10-11T18:08:11.947Z,15.10
2018-10-11T18:10:40.463Z,15.10
2018-10-11T18:13:08.981Z,15.00
2018-10-11T18:15:37.492Z,14.90
2018-10-11T18:18:06.077Z,14.90
2018-10-11T18:20:34.902Z,14.90
2018-10-11T18:23:03.440Z,14.80
2018-10-11T18:25:31.967Z,14.70
2018-10-11T18:28:00.464Z,14.70
2018-10-11T18:30:29.255Z,14.60
2018-10-11T18:32:57.864Z,14.60
2018-10-11T18:35:26.369Z,14.50
2018-10-11T18:37:54.892Z,14.50
2018-10-11T18:40:23.435Z,14.40
2018-10-11T18:42:51.984Z,14.30
2018-10-11T18:45:20.523Z,14.20
2018-10-11T18:47:49.038Z,14.20
2018-10-11T18:50:17.597Z,14.20
2018-10-11T18:52:46.112Z,14.20
2018-10-11T18:55:14.639Z,14.10
2018-10-11T18:57:43.471Z,14.10
2018-10-11T19:00:11.988Z,14.10
2018-10-11T19:02:40.535Z,14.00
2018-10-11T19:05:09.071Z,14.00
2018-10-11T19:07:37.604Z,14.00
2018-10-11T19:10:06.140Z,13.90
2018-10-11T19:12:34.632Z,13.90
2018-10-11T19:15:03.148Z,13.80
2018-10-11T19:17:32.596Z,13.80
2018-10-11T19:20:01.116Z,13.80
2018-10-11T19:22:29.982Z,13.80
2018-10-11T19:24:58.519Z,13.80
2018-10-11T19:30:18.007Z,13.70
2018-10-11T19:32:46.614Z,13.70
2018-10-11T19:35:15.175Z,13.70
2018-10-11T19:37:43.781Z,13.60
2018-10-11T19:40:12.374Z,13.60
2018-10-11T19:42:40.970Z,13.60
2018-10-11T19:45:09.617Z,13.60
2018-10-11T19:47:38.226Z,13.60
2018-10-11T19:50:07.274Z,13.60
2018-10-11T19:52:36.149Z,13.60
2018-10-11T19:55:04.814Z,13.60
2018-10-11T19:57:33.415Z,13.60
2018-10-11T20:00:01.992Z,13.50
2018-10-11T20:02:30.574Z,13.50
2018-10-11T20:04:59.180Z,13.50
2018-10-11T20:07:28.131Z,13.50
2018-10-11T20:09:56.732Z,13.50
2018-10-11T20:12:25.318Z,13.40
2018-10-11T20:14:53.879Z,13.40
2018-10-11T20:17:22.507Z,13.30
2018-10-11T20:19:51.070Z,13.30
2018-10-11T20:22:19.674Z,13.20
2018-10-11T20:24:48.242Z,13.20
2018-10-11T20:27:16.895Z,13.20
2018-10-11T20:29:45.783Z,13.20
2018-10-11T20:32:14.358Z,13.20
2018-10-11T20:34:42.935Z,13.20
2018-10-11T20:37:11.531Z,13.20
2018-10-11T20:39:40.107Z,13.20
2018-10-11T20:42:08.890Z,13.30
2018-10-11T20:44:37.493Z,13.30
2018-10-11T20:47:06.418Z,13.30
2018-10-11T20:49:35.386Z,13.30
2018-10-11T20:52:04.010Z,13.30
2018-10-11T20:54:32.602Z,13.20
2018-10-11T20:57:01.430Z,13.20
2018-10-11T20:59:30.478Z,13.20
2018-10-11T21:01:59.117Z,13.20
2018-10-11T21:04:27.811Z,13.20
2018-10-11T21:06:56.416Z,13.20
2018-10-11T21:09:25.004Z,13.20
2018-10-11T21:11:53.602Z,13.20
2018-10-11T21:14:22.199Z,13.10
2018-10-11T21:16:50.793Z,13.20
2018-10-11T21:19:19.402Z,13.20
2018-10-11T21:21:48.297Z,13.20
2018-10-11T21:24:17.075Z,13.10
2018-10-11T21:26:45.698Z,13.10
2018-10-11T21:29:14.299Z,13.00
2018-10-11T21:31:43.234Z,13.00
2018-10-11T21:34:11.841Z,13.00
2018-10-11T21:36:40.436Z,12.90
2018-10-11T21:39:11.154Z,13.00
2018-10-11T21:41:39.954Z,12.90
2018-10-11T21:44:08.503Z,13.00
2018-10-11T21:46:37.131Z,12.90
2018-10-11T21:49:05.776Z,12.90
2018-10-11T21:51:34.398Z,12.90
2018-10-11T21:54:02.982Z,12.90
2018-10-11T21:56:31.605Z,12.90
2018-10-11T22:01:50.981Z,12.90
2018-10-11T22:04:19.473Z,12.90
2018-10-11T22:06:47.918Z,13.00
2018-10-11T22:09:16.365Z,12.90
2018-10-11T22:11:44.850Z,13.00
2018-10-11T22:14:13.330Z,13.00
2018-10-11T22:16:41.802Z,13.10
2018-10-11T22:19:10.241Z,13.10
2018-10-11T22:21:38.706Z,13.10
2018-10-11T22:24:07.217Z,13.10
2018-10-11T22:26:35.658Z,13.20
2018-10-11T22:29:04.128Z,13.20
2018-10-11T22:31:32.588Z,13.20
2018-10-11T22:34:01.083Z,13.30
2018-10-11T22:36:29.819Z,13.40
2018-10-11T22:38:58.268Z,13.50
2018-10-11T22:41:26.757Z,13.50
2018-10-11T22:43:55.493Z,13.50
2018-10-11T22:46:24.069Z,13.50
2018-10-11T22:48:52.553Z,13.60
2018-10-11T22:51:21.021Z,13.60
2018-10-11T22:53:49.513Z,13.50
2018-10-11T22:56:20.929Z,13.50
2018-10-11T22:58:50.131Z,13.50
2018-10-11T23:01:18.652Z,13.40
2018-10-11T23:03:47.140Z,13.40
2018-10-11T23:06:15.629Z,13.40
2018-10-11T23:08:44.085Z,13.30
2018-10-11T23:11:12.695Z,13.30
2018-10-11T23:13:41.576Z,13.20
2018-10-11T23:16:10.979Z,13.20
2018-10-11T23:18:40.648Z,13.10
2018-10-11T23:21:09.786Z,13.00
2018-10-11T23:23:39.034Z,12.90
2018-10-11T23:26:08.796Z,12.90
2018-10-11T23:28:40.424Z,12.90
2018-10-11T23:31:11.090Z,12.90
2018-10-11T23:33:47.704Z,12.80
2018-10-11T23:36:20.476Z,12.70
2018-10-11T23:39:02.128Z,12.70
2018-10-11T23:41:38.405Z,12.70
2018-10-11T23:44:08.478Z,12.60
2018-10-11T23:46:49.229Z,12.60
2018-10-11T23:52:11.225Z,12.50
2018-10-11T23:54:39.793Z,12.50
2018-10-11T23:57:08.582Z,12.60
2018-10-11T23:59:37.136Z,12.60
